createdAt,value
2023-04-20T00:03:27.781Z,12.43
2023-04-20T00:08:37.643Z,12.77
2023-04-20T00:13:44.248Z,11.18
2023-04-20T00:18:51.855Z,12.63
2023-04-20T00:23:59.824Z,10.15
2023-04-20T00:29:07.590Z,10.98
2023-04-20T00:34:13.940Z,12.45
2023-04-20T00:39:21.883Z,11.73
2023-04-20T00:44:28.387Z,9.25
2023-04-20T00:49:35.148Z,11.90
2023-04-20T00:54:44.333Z,8.48
2023-04-20T00:59:51.557Z,13.20
2023-04-20T01:04:58.168Z,10.18
2023-04-20T01:10:07.189Z,12.95
2023-04-20T01:20:20.814Z,11.15
2023-04-20T01:25:28.835Z,12.77
2023-04-20T01:30:36.569Z,9.13
2023-04-20T01:35:45.189Z,12.00
2023-04-20T01:40:53.655Z,9.67
2023-04-20T01:46:00.917Z,10.13
2023-04-20T01:51:09.057Z,9.98
2023-04-20T01:56:16.814Z,12.63
2023-04-20T02:01:23.536Z,10.57
2023-04-20T02:06:30.088Z,11.27
2023-04-20T02:11:38.070Z,11.18
2023-04-20T02:16:48.270Z,11.57
2023-04-20T02:21:54.670Z,11.30
2023-04-20T02:27:02.813Z,10.70
2023-04-20T02:32:11.663Z,9.77
2023-04-20T02:37:18.148Z,10.80
2023-04-20T02:42:25.972Z,9.20
2023-04-20T02:47:33.848Z,12.55
2023-04-20T02:52:40.072Z,12.57
2023-04-20T02:57:48.377Z,12.48
2023-04-20T03:02:57.927Z,10.65
2023-04-20T03:08:07.635Z,12.40
2023-04-20T03:13:16.012Z,9.60
2023-04-20T03:18:31.062Z,9.88
2023-04-20T03:23:37.915Z,11.52
2023-04-20T03:28:47.613Z,13.55
2023-04-20T03:34:00.454Z,11.20
2023-04-20T03:39:07.364Z,8.40
2023-04-20T03:44:15.734Z,11.45
2023-04-20T03:49:26.983Z,7.27
2023-04-20T03:54:33.255Z,8.75
2023-04-20T03:59:41.632Z,10.00
2023-04-20T04:04:50.312Z,8.93
2023-04-20T04:09:56.990Z,9.32
2023-04-20T04:15:05.494Z,8.15
2023-04-20T04:20:17.246Z,12.63
2023-04-20T04:25:25.652Z,10.25
2023-04-20T04:30:33.737Z,11.65
2023-04-20T04:35:41.943Z,13.57
2023-04-20T04:45:58.810Z,11.88
2023-04-20T04:51:06.986Z,11.35
2023-04-20T04:56:14.807Z,10.43
2023-04-20T05:01:23.665Z,9.80
2023-04-20T05:06:30.168Z,8.95
2023-04-20T05:11:36.667Z,11.70
2023-04-20T05:16:44.379Z,17.02
2023-04-20T05:21:50.825Z,13.25
2023-04-20T05:26:57.313Z,12.05
2023-04-20T05:32:05.499Z,12.20
2023-04-20T05:37:12.435Z,10.40
2023-04-20T05:42:19.109Z,10.85
2023-04-20T05:47:27.851Z,11.18
2023-04-20T05:52:34.085Z,12.18
2023-04-20T05:57:43.117Z,34.05
2023-04-20T06:02:51.441Z,41.35
2023-04-20T06:07:57.899Z,39.23
2023-04-20T06:13:06.274Z,28.90
2023-04-20T06:18:14.400Z,28.83
2023-04-20T06:23:21.191Z,13.35
2023-04-20T06:28:27.855Z,14.48
2023-04-20T06:33:35.748Z,12.73
2023-04-20T06:38:42.214Z,10.75
2023-04-20T06:43:48.485Z,9.38
2023-04-20T06:48:56.265Z,14.13
2023-04-20T06:54:02.594Z,19.90
2023-04-20T06:59:09.029Z,8.23
2023-04-20T07:04:16.976Z,7.18
2023-04-20T07:09:23.349Z,10.57
2023-04-20T07:14:29.609Z,11.73
2023-04-20T07:19:37.618Z,9.38
2023-04-20T07:24:44.441Z,24.63
2023-04-20T07:29:50.764Z,13.73
2023-04-20T07:34:58.442Z,19.48
2023-04-20T07:40:06.623Z,22.20
2023-04-20T07:45:14.999Z,13.93
2023-04-20T07:50:22.868Z,10.30
2023-04-20T07:55:30.406Z,8.55
2023-04-20T08:00:37.232Z,7.07
2023-04-20T08:05:45.539Z,12.57
2023-04-20T08:10:51.808Z,9.67
2023-04-20T08:15:58.283Z,12.05
2023-04-20T08:21:07.284Z,10.32
2023-04-20T08:26:17.799Z,11.60
2023-04-20T08:31:24.188Z,13.45
2023-04-20T08:36:32.585Z,10.60
2023-04-20T08:41:39.269Z,12.30
2023-04-20T08:46:50.438Z,6.70
2023-04-20T08:51:58.435Z,7.97
2023-04-20T08:57:05.785Z,17.48
2023-04-20T09:02:13.758Z,15.50
2023-04-20T09:07:23.141Z,11.67
2023-04-20T09:12:30.129Z,16.25
2023-04-20T09:17:40.501Z,10.05
2023-04-20T09:22:51.163Z,13.77
2023-04-20T09:27:59.176Z,20.42
2023-04-20T09:33:08.348Z,8.27
2023-04-20T09:38:18.919Z,11.25
2023-04-20T09:43:29.219Z,13.05
2023-04-20T09:48:37.473Z,11.18
2023-04-20T09:53:47.706Z,9.13
2023-04-20T09:58:54.563Z,10.93
2023-04-20T10:04:03.484Z,8.68
2023-04-20T10:09:22.182Z,16.73
2023-04-20T10:14:29.075Z,9.65
2023-04-20T10:19:43.119Z,9.18
2023-04-20T10:24:51.078Z,9.27
2023-04-20T10:29:57.491Z,9.02
2023-04-20T10:35:06.711Z,12.07
2023-04-20T10:40:15.956Z,8.45
2023-04-20T10:45:22.685Z,5.20
2023-04-20T10:50:29.270Z,8.90
2023-04-20T10:55:37.184Z,8.02
2023-04-20T11:00:43.507Z,7.38
2023-04-20T11:05:52.875Z,6.30
2023-04-20T11:11:00.709Z,6.70
2023-04-20T11:16:14.470Z,5.73
2023-04-20T11:21:21.544Z,6.68
2023-04-20T11:26:40.991Z,3.30
2023-04-20T11:31:53.751Z,4.38
2023-04-20T11:37:05.528Z,4.65
2023-04-20T11:42:13.580Z,5.07
2023-04-20T11:47:20.303Z,5.80
2023-04-20T11:52:26.869Z,7.28
2023-04-20T11:57:35.046Z,6.20
2023-04-20T12:02:41.864Z,8.60
2023-04-20T12:07:50.008Z,5.22
2023-04-20T12:12:58.942Z,9.48
2023-04-20T12:18:05.654Z,8.02
2023-04-20T12:23:12.544Z,5.88
2023-04-20T12:28:20.603Z,5.75
2023-04-20T12:33:27.154Z,3.33
2023-04-20T12:38:33.390Z,8.88
2023-04-20T12:43:41.417Z,6.60
2023-04-20T12:48:47.839Z,6.47
2023-04-20T12:53:54.436Z,3.38
2023-04-20T12:59:02.261Z,9.75
2023-04-20T13:04:08.931Z,5.70
2023-04-20T13:09:15.440Z,8.25
2023-04-20T13:14:23.308Z,6.22
2023-04-20T13:19:30.491Z,5.20
2023-04-20T13:24:36.984Z,10.07
2023-04-20T13:29:44.745Z,10.27
2023-04-20T13:34:51.028Z,5.60
2023-04-20T13:39:57.329Z,6.32
2023-04-20T13:45:05.543Z,4.95
2023-04-20T13:50:13.137Z,5.28
2023-04-20T13:55:20.947Z,4.32
2023-04-20T14:00:29.117Z,3.27
2023-04-20T14:05:35.526Z,8.20
2023-04-20T14:10:42.737Z,7.53
2023-04-20T14:15:51.309Z,19.83
2023-04-20T14:26:04.553Z,12.32
2023-04-20T14:31:13.166Z,5.07
2023-04-20T14:41:26.427Z,5.35
2023-04-20T14:46:34.794Z,8.05
2023-04-20T14:51:41.859Z,8.88
2023-04-20T14:56:49.138Z,12.15
2023-04-20T15:02:02.711Z,21.08
2023-04-20T15:07:10.545Z,14.00
2023-04-20T15:12:17.694Z,9.10
2023-04-20T15:17:25.906Z,14.75
2023-04-20T15:22:33.297Z,18.85
2023-04-20T15:27:40.073Z,24.00
2023-04-20T15:32:47.989Z,42.90
2023-04-20T15:37:54.524Z,37.57
2023-04-20T15:43:03.207Z,46.38
2023-04-20T15:48:14.475Z,18.70
2023-04-20T15:53:22.812Z,9.20
2023-04-20T15:58:30.155Z,10.75
2023-04-20T16:03:39.702Z,10.60
2023-04-20T16:08:49.869Z,7.97
2023-04-20T16:13:58.436Z,6.50
2023-04-20T16:19:06.838Z,8.90
2023-04-20T16:24:14.701Z,10.77
2023-04-20T16:29:21.586Z,9.00
2023-04-20T16:34:30.956Z,7.57
2023-04-20T16:39:38.094Z,13.38
2023-04-20T16:44:44.684Z,11.45
2023-04-20T16:49:52.519Z,7.40
2023-04-20T16:54:59.093Z,14.00
2023-04-20T17:00:06.999Z,12.27
2023-04-20T17:05:15.478Z,11.63
2023-04-20T17:10:22.277Z,12.45
2023-04-20T17:15:29.298Z,14.75
2023-04-20T17:20:38.045Z,11.85
2023-04-20T17:25:46.370Z,16.20
2023-04-20T17:30:53.601Z,14.63
2023-04-20T17:36:02.401Z,13.30
2023-04-20T17:41:09.565Z,8.50
2023-04-20T17:46:17.473Z,12.85
2023-04-20T17:51:27.590Z,35.90
2023-04-20T17:56:34.713Z,37.88
2023-04-20T18:01:43.598Z,44.17
2023-04-20T18:06:56.604Z,39.70
2023-04-20T18:12:03.557Z,32.92
2023-04-20T18:17:13.121Z,16.95
2023-04-20T18:22:22.744Z,17.42
2023-04-20T18:27:30.114Z,13.05
2023-04-20T18:32:38.848Z,10.23
2023-04-20T18:37:49.043Z,10.40
2023-04-20T18:42:58.485Z,12.60
2023-04-20T18:48:08.156Z,12.80
2023-04-20T18:53:19.490Z,14.98
2023-04-20T18:58:28.515Z,11.90
2023-04-20T19:03:40.534Z,11.15
2023-04-20T19:08:51.522Z,11.18
2023-04-20T19:14:00.990Z,15.35
2023-04-20T19:19:12.805Z,14.90
2023-04-20T19:24:26.388Z,12.85
2023-04-20T19:29:35.690Z,16.90
2023-04-20T19:34:45.158Z,13.85
2023-04-20T19:39:53.977Z,22.90
2023-04-20T19:45:02.076Z,18.38
2023-04-20T19:50:14.886Z,14.95
2023-04-20T19:55:24.462Z,14.80
2023-04-20T20:00:33.253Z,13.65
2023-04-20T20:05:41.045Z,17.23
2023-04-20T20:10:50.545Z,17.58
2023-04-20T20:15:59.752Z,17.73
2023-04-20T20:21:07.509Z,15.32
2023-04-20T20:26:16.437Z,14.13
2023-04-20T20:31:23.691Z,18.37
2023-04-20T20:36:32.477Z,13.48
2023-04-20T20:41:43.207Z,15.88
2023-04-20T20:46:50.295Z,15.80
2023-04-20T20:51:56.839Z,16.83
2023-04-20T20:57:04.970Z,17.60
2023-04-20T21:02:11.882Z,22.97
2023-04-20T21:07:18.797Z,17.10
2023-04-20T21:12:27.087Z,16.83
2023-04-20T21:17:33.894Z,17.27
2023-04-20T21:22:40.798Z,21.33
2023-04-20T21:27:48.973Z,13.35
2023-04-20T21:32:55.823Z,16.17
2023-04-20T21:38:02.409Z,15.05
2023-04-20T21:43:10.216Z,17.35
2023-04-20T21:48:16.665Z,15.23
2023-04-20T21:53:23.276Z,13.50
2023-04-20T21:58:31.287Z,13.95
2023-04-20T22:03:38.218Z,11.93
2023-04-20T22:08:45.246Z,11.50
2023-04-20T22:13:53.693Z,21.35
2023-04-20T22:19:00.916Z,17.23
2023-04-20T22:24:08.294Z,14.10
2023-04-20T22:29:16.465Z,15.07
2023-04-20T22:34:23.112Z,16.97
2023-04-20T22:39:29.619Z,14.27
2023-04-20T22:44:37.482Z,13.73
2023-04-20T22:49:44.179Z,13.48
2023-04-20T22:54:50.708Z,15.68
2023-04-20T22:59:58.711Z,15.57
2023-04-20T23:05:06.084Z,14.77
2023-04-20T23:10:16.433Z,14.55
2023-04-20T23:15:24.649Z,11.45
2023-04-20T23:20:31.586Z,16.70
2023-04-20T23:25:38.240Z,16.30
2023-04-20T23:30:46.583Z,14.13
2023-04-20T23:35:53.333Z,11.50
2023-04-20T23:40:59.772Z,10.02
2023-04-20T23:46:08.430Z,8.07
2023-04-20T23:51:14.845Z,7.80
2023-04-20T23:56:21.761Z,10.68
